Decoded Metar for KSIK ( in ) (IATA:) | Meteo·Mobile Aviation Weather
aviador You're here:

KSIK Decoded Metar

in
Report Time2019-01-18 13:55:00
UTC Time2019-01-18 14:09:33
Flight Rules mvfr MVFR
Wind060° at 04 kt
W.Decomp.*RWY 03: 3.5 kt HW 2.0 kt RCW
RWY 02: 3.1 kt HW 2.6 kt RCW
W.Rank060° ranks 19
Current wind is below 060° avg. (5.8)
Visibility9999 m
Phenomena:N/A
Clouds:Overcast 012 Hf
Expected CloudBase > 800 ft AGL from Temp-Dew spread
Ceiling1,200 ft
Temp05°C
Dew Point03°C (87% RH)
AAT2.1°C
QNH1021 hPa
Raw Report
KSIK 181355Z AUTO 06004KT 10SM OVC012 05/03 A3015 RMK AO2=

Extra information for KSIK:More info

Social comments